Hovedside
METAR-TAF:

METAR-TAF

Lufthavner :

Cadjehoun lufthavn

Cotonou, Benin

breddegrad: 06-21N, lengdegrad: 002-23E, høyde over havet: 5 m

Gjeldene værobservasjon

Denne rapporten ble laget for 2 timer og 18 minutter siden, klokken 20:00 UTC
Vind 7 kt fra Vest-sørvest
Temperatur 27°C
Luftfuktighet 89%
Trykk 1012 hPa
Sikt: 8000 m
Spredte skyer i en høyde av 1200 ft

METAR: DBBB 252000Z 24007KT 8000 SCT012 27/25 Q1012 RERA NOSIG

Tid: 23:18 (22:18 UTC)

Varsel

Denne rapporten ble laget for 18 minutter siden, klokken 22:00 UTC
Varsel gyldig fra 25. klokken 22 UTC til 26. klokken 24 UTC
Vind 10 kt fra Sørvest
Sikt: 8000 m
Spredte skyer i en høyde av 1000 ft
Midlertidig
fra 25. klokken 22 UTC til 26. klokken 02 UTC
Sikt: 4000 m
Brutte skyer i en høyde av 1000 ft
Få skyer i en høyde av 2300 ft, Bygeskyer.
torden, regn,

TAF: DBBB 252200Z 2522/2624 22010KT 8000 SCT010 TEMPO 2522/2602 4000 TSRA BKN010 FEW023CB

Værobservasjoner og værvarsel for over 4000 flyplasser (METAR- og TAF-rapporter).

Tilgjengelige stasjoner er representert av de røde og gule prikkene på kartet.

Hold musepekeren over prikken for å se navnet på stasjonen.

Klikk så for å se værobservasjoner og -varsler.

For å forandre kartet kan du klikke på den grønne knappen med svart kryss for å zoome inn, på den grønne knappen med strek for å zoome ut, eller på de grønne pilene for å se tilstøtende kart.


METAR-TAF: